sensor_id;sensor_type;location;lat;lon;timestamp;pressure;altitude;pressure_sealevel;temperature
74750;BMP280;63269;53.330;-6.288;2023-02-28T00:01:23;103487.34;;;20.49
74750;BMP280;63269;53.330;-6.288;2023-02-28T00:03:49;103488.03;;;20.46
74750;BMP280;63269;53.330;-6.288;2023-02-28T00:06:14;103496.44;;;20.44
74750;BMP280;63269;53.330;-6.288;2023-02-28T00:08:40;103491.09;;;20.44
74750;BMP280;63269;53.330;-6.288;2023-02-28T00:11:10;103491.09;;;20.44
74750;BMP280;63269;53.330;-6.288;2023-02-28T00:13:39;103487.22;;;20.42
74750;BMP280;63269;53.330;-6.288;2023-02-28T00:16:10;103498.63;;;20.38
74750;BMP280;63269;53.330;-6.288;2023-02-28T00:18:36;103497.88;;;20.38
74750;BMP280;63269;53.330;-6.288;2023-02-28T00:21:02;103497.88;;;20.38
74750;BMP280;63269;53.330;-6.288;2023-02-28T00:23:29;103503.94;;;20.35
74750;BMP280;63269;53.330;-6.288;2023-02-28T00:25:54;103503.94;;;20.35
74750;BMP280;63269;53.330;-6.288;2023-02-28T00:28:20;103499.28;;;20.32
74750;BMP280;63269;53.330;-6.288;2023-02-28T00:30:46;103499.28;;;20.32
74750;BMP280;63269;53.330;-6.288;2023-02-28T00:33:11;103495.81;;;20.28
74750;BMP280;63269;53.330;-6.288;2023-02-28T00:35:37;103495.81;;;20.28
74750;BMP280;63269;53.330;-6.288;2023-02-28T00:38:02;103506.50;;;20.28
74750;BMP280;63269;53.330;-6.288;2023-02-28T00:40:28;103508.75;;;20.26
74750;BMP280;63269;53.330;-6.288;2023-02-28T00:42:54;103508.75;;;20.26
74750;BMP280;63269;53.330;-6.288;2023-02-28T00:45:19;103507.56;;;20.23
74750;BMP280;63269;53.330;-6.288;2023-02-28T00:47:45;103510.59;;;20.22
74750;BMP280;63269;53.330;-6.288;2023-02-28T00:50:12;103509.03;;;20.21
74750;BMP280;63269;53.330;-6.288;2023-02-28T00:52:37;103514.38;;;20.21
74750;BMP280;63269;53.330;-6.288;2023-02-28T00:55:03;103514.38;;;20.21
74750;BMP280;63269;53.330;-6.288;2023-02-28T00:57:28;103514.00;;;20.18
74750;BMP280;63269;53.330;-6.288;2023-02-28T00:59:54;103512.44;;;20.17
74750;BMP280;63269;53.330;-6.288;2023-02-28T01:02:20;103509.03;;;20.17
74750;BMP280;63269;53.330;-6.288;2023-02-28T01:04:46;103514.69;;;20.15
74750;BMP280;63269;53.330;-6.288;2023-02-28T01:07:11;103521.16;;;20.14
74750;BMP280;63269;53.330;-6.288;2023-02-28T01:09:37;103521.16;;;20.14
74750;BMP280;63269;53.330;-6.288;2023-02-28T01:12:02;103513.53;;;20.13
74750;BMP280;63269;53.330;-6.288;2023-02-28T01:14:28;103516.56;;;20.11
74750;BMP280;63269;53.330;-6.288;2023-02-28T01:16:53;103518.44;;;20.11
74750;BMP280;63269;53.330;-6.288;2023-02-28T01:19:19;103521.47;;;20.09
74750;BMP280;63269;53.330;-6.288;2023-02-28T01:21:44;103529.47;;;20.09
74750;BMP280;63269;53.330;-6.288;2023-02-28T01:24:09;103522.63;;;20.08
74750;BMP280;63269;53.330;-6.288;2023-02-28T01:26:35;103522.63;;;20.08
74750;BMP280;63269;53.330;-6.288;2023-02-28T01:29:00;103524.06;;;20.06
74750;BMP280;63269;53.330;-6.288;2023-02-28T01:31:26;103521.78;;;20.04
74750;BMP280;63269;53.330;-6.288;2023-02-28T01:33:51;103521.78;;;20.04
74750;BMP280;63269;53.330;-6.288;2023-02-28T01:36:20;103522.13;;;20.03
74750;BMP280;63269;53.330;-6.288;2023-02-28T01:38:46;103522.13;;;20.03
74750;BMP280;63269;53.330;-6.288;2023-02-28T01:41:30;103522.13;;;20.03
74750;BMP280;63269;53.330;-6.288;2023-02-28T01:46:29;103525.53;;;20.00
74750;BMP280;63269;53.330;-6.288;2023-02-28T01:51:34;103528.56;;;19.98
74750;BMP280;63269;53.330;-6.288;2023-02-28T01:54:07;103517.09;;;19.97
74750;BMP280;63269;53.330;-6.288;2023-02-28T01:56:42;103517.09;;;19.97
74750;BMP280;63269;53.330;-6.288;2023-02-28T01:59:09;103518.59;;;19.95
74750;BMP280;63269;53.330;-6.288;2023-02-28T02:01:34;103518.59;;;19.95
74750;BMP280;63269;53.330;-6.288;2023-02-28T02:04:02;103521.25;;;19.95
74750;BMP280;63269;53.330;-6.288;2023-02-28T02:06:31;103518.94;;;19.93
74750;BMP280;63269;53.330;-6.288;2023-02-28T02:08:58;103518.94;;;19.93
74750;BMP280;63269;53.330;-6.288;2023-02-28T02:11:24;103513.22;;;19.91
74750;BMP280;63269;53.330;-6.288;2023-02-28T02:16:59;103510.56;;;19.91
74750;BMP280;63269;53.330;-6.288;2023-02-28T02:36:05;103521.47;;;19.83
74750;BMP280;63269;53.330;-6.288;2023-02-28T02:38:36;103518.81;;;19.83
74750;BMP280;63269;53.330;-6.288;2023-02-28T02:41:26;103518.81;;;19.83
74750;BMP280;63269;53.330;-6.288;2023-02-28T02:43:55;103528.19;;;19.76
74750;BMP280;63269;53.330;-6.288;2023-02-28T02:46:38;103528.19;;;19.76
74750;BMP280;63269;53.330;-6.288;2023-02-28T02:49:09;103517.19;;;19.78
74750;BMP280;63269;53.330;-6.288;2023-02-28T02:51:38;103517.19;;;19.78
74750;BMP280;63269;53.330;-6.288;2023-02-28T02:54:11;103513.00;;;19.77
74750;BMP280;63269;53.330;-6.288;2023-02-28T02:56:42;103513.00;;;19.77
74750;BMP280;63269;53.330;-6.288;2023-02-28T02:59:11;103510.34;;;19.77
74750;BMP280;63269;53.330;-6.288;2023-02-28T03:01:39;103510.34;;;19.77
74750;BMP280;63269;53.330;-6.288;2023-02-28T03:04:11;103503.81;;;19.74
74750;BMP280;63269;53.330;-6.288;2023-02-28T03:06:38;103503.81;;;19.74
74750;BMP280;63269;53.330;-6.288;2023-02-28T03:09:04;103503.81;;;19.74
74750;BMP280;63269;53.330;-6.288;2023-02-28T03:11:30;103509.53;;;19.73
74750;BMP280;63269;53.330;-6.288;2023-02-28T03:15:21;103501.53;;;19.73
74750;BMP280;63269;53.330;-6.288;2023-02-28T03:17:50;103509.88;;;19.71
74750;BMP280;63269;53.330;-6.288;2023-02-28T03:21:00;103504.53;;;19.71
74750;BMP280;63269;53.330;-6.288;2023-02-28T03:23:50;103504.53;;;19.71
74750;BMP280;63269;53.330;-6.288;2023-02-28T03:26:22;103515.56;;;19.70
74750;BMP280;63269;53.330;-6.288;2023-02-28T03:29:13;103507.91;;;19.68
74750;BMP280;63269;53.330;-6.288;2023-02-28T03:31:51;103511.34;;;19.69
74750;BMP280;63269;53.330;-6.288;2023-02-28T03:34:29;103511.34;;;19.69
74750;BMP280;63269;53.330;-6.288;2023-02-28T03:37:04;103512.47;;;19.68
74750;BMP280;63269;53.330;-6.288;2023-02-28T03:39:43;103519.69;;;19.67
74750;BMP280;63269;53.330;-6.288;2023-02-28T03:42:12;103521.56;;;19.67
74750;BMP280;63269;53.330;-6.288;2023-02-28T03:44:40;103517.31;;;19.62
74750;BMP280;63269;53.330;-6.288;2023-02-28T03:47:13;103517.31;;;19.62
74750;BMP280;63269;53.330;-6.288;2023-02-28T03:50:01;103522.72;;;19.66
74750;BMP280;63269;53.330;-6.288;2023-02-28T03:52:33;103522.72;;;19.66
74750;BMP280;63269;53.330;-6.288;2023-02-28T03:55:03;103518.88;;;19.63
74750;BMP280;63269;53.330;-6.288;2023-02-28T03:57:50;103527.63;;;19.64
74750;BMP280;63269;53.330;-6.288;2023-02-28T04:00:21;103527.63;;;19.64
74750;BMP280;63269;53.330;-6.288;2023-02-28T04:02:53;103527.63;;;19.64
74750;BMP280;63269;53.330;-6.288;2023-02-28T04:05:20;103537.50;;;19.63
74750;BMP280;63269;53.330;-6.288;2023-02-28T04:07:46;103532.19;;;19.63
74750;BMP280;63269;53.330;-6.288;2023-02-28T04:10:12;103529.88;;;19.62
74750;BMP280;63269;53.330;-6.288;2023-02-28T04:12:38;103529.88;;;19.62
74750;BMP280;63269;53.330;-6.288;2023-02-28T04:15:04;103535.19;;;19.62
74750;BMP280;63269;53.330;-6.288;2023-02-28T04:17:30;103535.19;;;19.62
74750;BMP280;63269;53.330;-6.288;2023-02-28T04:19:55;103526.41;;;19.61
74750;BMP280;63269;53.330;-6.288;2023-02-28T04:22:21;103526.41;;;19.61
74750;BMP280;63269;53.330;-6.288;2023-02-28T04:24:47;103532.13;;;19.60
74750;BMP280;63269;53.330;-6.288;2023-02-28T04:27:12;103532.13;;;19.60
74750;BMP280;63269;53.330;-6.288;2023-02-28T04:29:38;103532.47;;;19.58
74750;BMP280;63269;53.330;-6.288;2023-02-28T04:32:04;103541.25;;;19.59
74750;BMP280;63269;53.330;-6.288;2023-02-28T04:34:31;103551.09;;;19.58
74750;BMP280;63269;53.330;-6.288;2023-02-28T04:36:57;103551.09;;;19.58
74750;BMP280;63269;53.330;-6.288;2023-02-28T04:39:24;103550.34;;;19.57
74750;BMP280;63269;53.330;-6.288;2023-02-28T04:41:50;103550.34;;;19.57
74750;BMP280;63269;53.330;-6.288;2023-02-28T04:44:16;103544.25;;;19.57
74750;BMP280;63269;53.330;-6.288;2023-02-28T04:46:42;103552.59;;;19.55
74750;BMP280;63269;53.330;-6.288;2023-02-28T04:49:11;103556.78;;;19.56
74750;BMP280;63269;53.330;-6.288;2023-02-28T04:51:36;103556.78;;;19.56
74750;BMP280;63269;53.330;-6.288;2023-02-28T04:54:02;103559.06;;;19.54
74750;BMP280;63269;53.330;-6.288;2023-02-28T04:56:28;103555.59;;;19.54
74750;BMP280;63269;53.330;-6.288;2023-02-28T04:58:53;103566.25;;;19.54
74750;BMP280;63269;53.330;-6.288;2023-02-28T05:01:30;103566.25;;;19.54
74750;BMP280;63269;53.330;-6.288;2023-02-28T05:03:57;103554.84;;;19.53
74750;BMP280;63269;53.330;-6.288;2023-02-28T05:06:25;103562.81;;;19.53
74750;BMP280;63269;53.330;-6.288;2023-02-28T05:08:51;103562.06;;;19.53
74750;BMP280;63269;53.330;-6.288;2023-02-28T05:11:20;103562.06;;;19.53
74750;BMP280;63269;53.330;-6.288;2023-02-28T05:13:46;103573.09;;;19.51
74750;BMP280;63269;53.330;-6.288;2023-02-28T05:16:12;103580.28;;;19.51
74750;BMP280;63269;53.330;-6.288;2023-02-28T05:18:38;103580.28;;;19.51
74750;BMP280;63269;53.330;-6.288;2023-02-28T05:21:03;103580.28;;;19.51
74750;BMP280;63269;53.330;-6.288;2023-02-28T05:23:29;103580.28;;;19.51
74750;BMP280;63269;53.330;-6.288;2023-02-28T05:25:55;103582.19;;;19.50
74750;BMP280;63269;53.330;-6.288;2023-02-28T05:28:20;103587.56;;;19.54
74750;BMP280;63269;53.330;-6.288;2023-02-28T05:30:46;103592.69;;;19.63
74750;BMP280;63269;53.330;-6.288;2023-02-28T05:33:12;103591.97;;;19.66
74750;BMP280;63269;53.330;-6.288;2023-02-28T05:35:41;103591.97;;;19.66
74750;BMP280;63269;53.330;-6.288;2023-02-28T05:38:08;103592.44;;;19.71
74750;BMP280;63269;53.330;-6.288;2023-02-28T05:40:33;103585.63;;;19.74
74750;BMP280;63269;53.330;-6.288;2023-02-28T05:42:59;103597.47;;;19.76
74750;BMP280;63269;53.330;-6.288;2023-02-28T05:45:24;103594.81;;;19.76
74750;BMP280;63269;53.330;-6.288;2023-02-28T05:47:53;103596.75;;;19.80
74750;BMP280;63269;53.330;-6.288;2023-02-28T05:50:19;103599.84;;;19.82
74750;BMP280;63269;53.330;-6.288;2023-02-28T05:52:44;103598.03;;;19.86
74750;BMP280;63269;53.330;-6.288;2023-02-28T05:55:09;103598.06;;;19.89
74750;BMP280;63269;53.330;-6.288;2023-02-28T05:57:35;103587.06;;;19.91
74750;BMP280;63269;53.330;-6.288;2023-02-28T06:00:00;103599.72;;;19.97
74750;BMP280;63269;53.330;-6.288;2023-02-28T06:02:26;103600.91;;;20.00
74750;BMP280;63269;53.330;-6.288;2023-02-28T06:04:51;103592.19;;;20.03
74750;BMP280;63269;53.330;-6.288;2023-02-28T06:07:17;103596.81;;;20.06
74750;BMP280;63269;53.330;-6.288;2023-02-28T06:09:42;103597.63;;;20.10
74750;BMP280;63269;53.330;-6.288;2023-02-28T06:12:09;103601.50;;;20.13
74750;BMP280;63269;53.330;-6.288;2023-02-28T06:14:35;103607.22;;;20.15
74750;BMP280;63269;53.330;-6.288;2023-02-28T06:17:01;103592.41;;;20.17
74750;BMP280;63269;53.330;-6.288;2023-02-28T06:19:27;103593.59;;;20.20
74750;BMP280;63269;53.330;-6.288;2023-02-28T06:21:54;103596.69;;;20.22
74750;BMP280;63269;53.330;-6.288;2023-02-28T06:24:21;103600.88;;;20.23
74750;BMP280;63269;53.330;-6.288;2023-02-28T06:26:47;103600.16;;;20.26
74750;BMP280;63269;53.330;-6.288;2023-02-28T06:29:12;103592.56;;;20.28
74750;BMP280;63269;53.330;-6.288;2023-02-28T06:31:44;103597.56;;;20.30
74750;BMP280;63269;53.330;-6.288;2023-02-28T06:34:10;103599.50;;;20.33
74750;BMP280;63269;53.330;-6.288;2023-02-28T06:36:37;103602.59;;;20.35
74750;BMP280;63269;53.330;-6.288;2023-02-28T06:39:03;103603.38;;;20.35
74750;BMP280;63269;53.330;-6.288;2023-02-28T06:41:28;103612.53;;;20.38
74750;BMP280;63269;53.330;-6.288;2023-02-28T06:43:54;103616.72;;;20.39
74750;BMP280;63269;53.330;-6.288;2023-02-28T06:46:20;103622.47;;;20.41
74750;BMP280;63269;53.330;-6.288;2023-02-28T06:48:45;103616.78;;;20.43
74750;BMP280;63269;53.330;-6.288;2023-02-28T06:51:17;103619.84;;;20.45
74750;BMP280;63269;53.330;-6.288;2023-02-28T06:53:43;103625.97;;;20.45
74750;BMP280;63269;53.330;-6.288;2023-02-28T06:56:11;103633.25;;;20.48
74750;BMP280;63269;53.330;-6.288;2023-02-28T06:58:37;103634.03;;;20.49
74750;BMP280;63269;53.330;-6.288;2023-02-28T07:01:04;103635.53;;;20.50
74750;BMP280;63269;53.330;-6.288;2023-02-28T07:03:30;103645.88;;;20.51
74750;BMP280;63269;53.330;-6.288;2023-02-28T07:05:56;103643.59;;;20.53
74750;BMP280;63269;53.330;-6.288;2023-02-28T07:08:23;103644.38;;;20.54
74750;BMP280;63269;53.330;-6.288;2023-02-28T07:10:52;103643.25;;;20.55
74750;BMP280;63269;53.330;-6.288;2023-02-28T07:13:17;103658.13;;;20.56
74750;BMP280;63269;53.330;-6.288;2023-02-28T07:15:42;103652.78;;;20.56
74750;BMP280;63269;53.330;-6.288;2023-02-28T07:18:08;103657.75;;;20.57
74750;BMP280;63269;53.330;-6.288;2023-02-28T07:20:33;103653.97;;;20.58
74750;BMP280;63269;53.330;-6.288;2023-02-28T07:22:58;103658.19;;;20.59
74750;BMP280;63269;53.330;-6.288;2023-02-28T07:25:28;103658.19;;;20.59
74750;BMP280;63269;53.330;-6.288;2023-02-28T07:27:54;103659.72;;;20.61
74750;BMP280;63269;53.330;-6.288;2023-02-28T07:30:20;103659.00;;;20.64
74750;BMP280;63269;53.330;-6.288;2023-02-28T07:32:46;103659.00;;;20.64
74750;BMP280;63269;53.330;-6.288;2023-02-28T07:35:12;103664.75;;;20.66
74750;BMP280;63269;53.330;-6.288;2023-02-28T07:37:37;103664.75;;;20.66
74750;BMP280;63269;53.330;-6.288;2023-02-28T07:40:08;103660.22;;;20.70
74750;BMP280;63269;53.330;-6.288;2023-02-28T07:42:37;103680.50;;;20.74
74750;BMP280;63269;53.330;-6.288;2023-02-28T07:45:03;103669.81;;;20.74
74750;BMP280;63269;53.330;-6.288;2023-02-28T07:47:29;103678.66;;;20.78
74750;BMP280;63269;53.330;-6.288;2023-02-28T07:49:55;103682.47;;;20.81
74750;BMP280;63269;53.330;-6.288;2023-02-28T07:52:20;103678.31;;;20.84
74750;BMP280;63269;53.330;-6.288;2023-02-28T07:54:46;103678.31;;;20.84
74750;BMP280;63269;53.330;-6.288;2023-02-28T07:57:11;103687.56;;;20.90
74750;BMP280;63269;53.330;-6.288;2023-02-28T07:59:36;103687.56;;;20.90
74750;BMP280;63269;53.330;-6.288;2023-02-28T08:02:02;103690.31;;;20.97
74750;BMP280;63269;53.330;-6.288;2023-02-28T08:04:27;103684.25;;;21.00
74750;BMP280;63269;53.330;-6.288;2023-02-28T08:06:54;103685.44;;;21.03
74750;BMP280;63269;53.330;-6.288;2023-02-28T08:09:21;103685.44;;;21.03
74750;BMP280;63269;53.330;-6.288;2023-02-28T08:11:47;103699.59;;;21.07
74750;BMP280;63269;53.330;-6.288;2023-02-28T08:14:12;103690.09;;;21.09
74750;BMP280;63269;53.330;-6.288;2023-02-28T08:16:37;103697.47;;;21.19
74750;BMP280;63269;53.330;-6.288;2023-02-28T08:19:03;103705.56;;;21.27
74750;BMP280;63269;53.330;-6.288;2023-02-28T08:21:29;103695.31;;;21.32
74750;BMP280;63269;53.330;-6.288;2023-02-28T08:23:54;103705.28;;;21.35
74750;BMP280;63269;53.330;-6.288;2023-02-28T08:26:22;103700.75;;;21.39
74750;BMP280;63269;53.330;-6.288;2023-02-28T08:28:47;103694.28;;;21.40
74750;BMP280;63269;53.330;-6.288;2023-02-28T08:31:14;103696.94;;;21.40
74750;BMP280;63269;53.330;-6.288;2023-02-28T08:33:41;103705.75;;;21.41
74750;BMP280;63269;53.330;-6.288;2023-02-28T08:36:08;103703.41;;;21.39
74750;BMP280;63269;53.330;-6.288;2023-02-28T08:38:34;103691.59;;;21.37
74750;BMP280;63269;53.330;-6.288;2023-02-28T08:41:03;103699.59;;;21.37
74750;BMP280;63269;53.330;-6.288;2023-02-28T08:43:31;103704.50;;;21.35
74750;BMP280;63269;53.330;-6.288;2023-02-28T08:45:56;103707.56;;;21.33
74750;BMP280;63269;53.330;-6.288;2023-02-28T08:48:23;103705.25;;;21.32
74750;BMP280;63269;53.330;-6.288;2023-02-28T08:50:59;103707.50;;;21.30
74750;BMP280;63269;53.330;-6.288;2023-02-28T08:53:25;103707.50;;;21.30
74750;BMP280;63269;53.330;-6.288;2023-02-28T08:58:23;103705.16;;;21.25
74750;BMP280;63269;53.330;-6.288;2023-02-28T09:00:48;103710.88;;;21.23
74750;BMP280;63269;53.330;-6.288;2023-02-28T09:03:13;103714.63;;;21.18
74750;BMP280;63269;53.330;-6.288;2023-02-28T09:05:39;103717.59;;;21.13
74750;BMP280;63269;53.330;-6.288;2023-02-28T09:08:04;103717.59;;;21.13
74750;BMP280;63269;53.330;-6.288;2023-02-28T09:10:30;103720.22;;;21.10
74750;BMP280;63269;53.330;-6.288;2023-02-28T09:12:55;103715.16;;;21.01
74750;BMP280;63269;53.330;-6.288;2023-02-28T09:15:20;103725.00;;;20.97
74750;BMP280;63269;53.330;-6.288;2023-02-28T09:17:46;103726.09;;;20.92
74750;BMP280;63269;53.330;-6.288;2023-02-28T09:20:12;103729.44;;;20.86
74750;BMP280;63269;53.330;-6.288;2023-02-28T09:22:37;103728.28;;;20.83
74750;BMP280;63269;53.330;-6.288;2023-02-28T09:25:02;103728.28;;;20.83
74750;BMP280;63269;53.330;-6.288;2023-02-28T09:27:28;103730.09;;;20.79
74750;BMP280;63269;53.330;-6.288;2023-02-28T09:29:53;103730.09;;;20.79
74750;BMP280;63269;53.330;-6.288;2023-02-28T09:32:19;103725.50;;;20.76
74750;BMP280;63269;53.330;-6.288;2023-02-28T09:34:44;103735.38;;;20.75
74750;BMP280;63269;53.330;-6.288;2023-02-28T09:37:10;103738.44;;;20.74
74750;BMP280;63269;53.330;-6.288;2023-02-28T09:39:35;103735.34;;;20.72
74750;BMP280;63269;53.330;-6.288;2023-02-28T09:42:02;103735.34;;;20.72
74750;BMP280;63269;53.330;-6.288;2023-02-28T09:44:39;103726.16;;;20.69
74750;BMP280;63269;53.330;-6.288;2023-02-28T09:49:47;103730.69;;;20.65
74750;BMP280;63269;53.330;-6.288;2023-02-28T09:52:28;103730.69;;;20.65
74750;BMP280;63269;53.330;-6.288;2023-02-28T09:54:55;103727.94;;;20.62
74750;BMP280;63269;53.330;-6.288;2023-02-28T09:57:40;103726.78;;;20.59
74750;BMP280;63269;53.330;-6.288;2023-02-28T10:00:19;103725.22;;;20.58
74750;BMP280;63269;53.330;-6.288;2023-02-28T10:08:16;103722.09;;;20.52
74750;BMP280;63269;53.330;-6.288;2023-02-28T10:10:48;103727.78;;;20.51
74750;BMP280;63269;53.330;-6.288;2023-02-28T10:13:29;103729.66;;;20.50
74750;BMP280;63269;53.330;-6.288;2023-02-28T10:16:31;103722.03;;;20.49
74750;BMP280;63269;53.330;-6.288;2023-02-28T10:19:06;103722.81;;;20.49
74750;BMP280;63269;53.330;-6.288;2023-02-28T10:21:42;103722.81;;;20.49
74750;BMP280;63269;53.330;-6.288;2023-02-28T10:26:59;103723.84;;;20.45
74750;BMP280;63269;53.330;-6.288;2023-02-28T10:29:26;103736.81;;;20.43
74750;BMP280;63269;53.330;-6.288;2023-02-28T10:31:51;103730.28;;;20.40
74750;BMP280;63269;53.330;-6.288;2023-02-28T10:34:17;103730.28;;;20.40
74750;BMP280;63269;53.330;-6.288;2023-02-28T10:36:42;103728.31;;;20.37
74750;BMP280;63269;53.330;-6.288;2023-02-28T10:39:34;103728.31;;;20.37
74750;BMP280;63269;53.330;-6.288;2023-02-28T10:42:00;103737.81;;;20.34
74750;BMP280;63269;53.330;-6.288;2023-02-28T10:44:26;103737.81;;;20.34
74750;BMP280;63269;53.330;-6.288;2023-02-28T10:46:51;103725.19;;;20.31
74750;BMP280;63269;53.330;-6.288;2023-02-28T10:49:27;103732.44;;;20.31
74750;BMP280;63269;53.330;-6.288;2023-02-28T10:51:58;103736.22;;;20.30
74750;BMP280;63269;53.330;-6.288;2023-02-28T10:54:30;103740.00;;;20.29
74750;BMP280;63269;53.330;-6.288;2023-02-28T10:59:44;103737.69;;;20.27
74750;BMP280;63269;53.330;-6.288;2023-02-28T11:02:33;103738.41;;;20.24
74750;BMP280;63269;53.330;-6.288;2023-02-28T11:04:59;103739.88;;;20.22
74750;BMP280;63269;53.330;-6.288;2023-02-28T11:07:26;103731.88;;;20.22
74750;BMP280;63269;53.330;-6.288;2023-02-28T11:09:54;103731.88;;;20.22
74750;BMP280;63269;53.330;-6.288;2023-02-28T11:12:36;103736.00;;;20.19
74750;BMP280;63269;53.330;-6.288;2023-02-28T11:15:06;103731.47;;;20.20
74750;BMP280;63269;53.330;-6.288;2023-02-28T11:17:40;103731.47;;;20.20
74750;BMP280;63269;53.330;-6.288;2023-02-28T11:20:10;103726.50;;;20.18
74750;BMP280;63269;53.330;-6.288;2023-02-28T11:22:45;103721.84;;;20.15
74750;BMP280;63269;53.330;-6.288;2023-02-28T11:25:23;103721.84;;;20.15
74750;BMP280;63269;53.330;-6.288;2023-02-28T11:27:54;103716.13;;;20.13
74750;BMP280;63269;53.330;-6.288;2023-02-28T11:30:26;103730.56;;;20.12
74750;BMP280;63269;53.330;-6.288;2023-02-28T11:32:52;103734.38;;;20.11
74750;BMP280;63269;53.330;-6.288;2023-02-28T11:35:24;103734.38;;;20.11
74750;BMP280;63269;53.330;-6.288;2023-02-28T11:37:52;103725.53;;;20.07
74750;BMP280;63269;53.330;-6.288;2023-02-28T11:40:22;103722.06;;;20.06
74750;BMP280;63269;53.330;-6.288;2023-02-28T11:43:04;103733.53;;;20.07
74750;BMP280;63269;53.330;-6.288;2023-02-28T11:45:44;103731.25;;;20.05
74750;BMP280;63269;53.330;-6.288;2023-02-28T11:48:22;103727.78;;;20.05
74750;BMP280;63269;53.330;-6.288;2023-02-28T11:56:32;103729.97;;;19.99
74750;BMP280;63269;53.330;-6.288;2023-02-28T12:02:31;103737.53;;;19.97
74750;BMP280;63269;53.330;-6.288;2023-02-28T12:10:29;103726.41;;;19.91
74750;BMP280;63269;53.330;-6.288;2023-02-28T12:13:16;103725.28;;;19.92
74750;BMP280;63269;53.330;-6.288;2023-02-28T12:21:04;103720.63;;;19.89
74750;BMP280;63269;53.330;-6.288;2023-02-28T12:26:45;103720.97;;;19.88
74750;BMP280;63269;53.330;-6.288;2023-02-28T12:29:28;103720.97;;;19.88
74750;BMP280;63269;53.330;-6.288;2023-02-28T12:32:11;103706.47;;;19.85
74750;BMP280;63269;53.330;-6.288;2023-02-28T12:34:42;103706.81;;;19.84
74750;BMP280;63269;53.330;-6.288;2023-02-28T12:37:17;103707.59;;;19.84
74750;BMP280;63269;53.330;-6.288;2023-02-28T12:39:47;103704.16;;;19.84
74750;BMP280;63269;53.330;-6.288;2023-02-28T12:42:24;103694.66;;;19.83
74750;BMP280;63269;53.330;-6.288;2023-02-28T12:45:17;103689.69;;;19.81
74750;BMP280;63269;53.330;-6.288;2023-02-28T12:47:46;103689.69;;;19.81
74750;BMP280;63269;53.330;-6.288;2023-02-28T12:50:14;103704.09;;;19.80
74750;BMP280;63269;53.330;-6.288;2023-02-28T12:53:08;103691.53;;;19.81
74750;BMP280;63269;53.330;-6.288;2023-02-28T12:58:43;103694.94;;;19.77
74750;BMP280;63269;53.330;-6.288;2023-02-28T13:02:16;103696.03;;;19.76
74750;BMP280;63269;53.330;-6.288;2023-02-28T13:10:06;103692.19;;;19.74
74750;BMP280;63269;53.330;-6.288;2023-02-28T13:12:33;103691.78;;;19.72
74750;BMP280;63269;53.330;-6.288;2023-02-28T13:15:18;103677.69;;;19.71
74750;BMP280;63269;53.330;-6.288;2023-02-28T13:17:50;103677.69;;;19.71
74750;BMP280;63269;53.330;-6.288;2023-02-28T13:20:20;103674.59;;;19.69
74750;BMP280;63269;53.330;-6.288;2023-02-28T13:22:49;103679.16;;;19.69
74750;BMP280;63269;53.330;-6.288;2023-02-28T13:28:10;103671.53;;;19.67
74750;BMP280;63269;53.330;-6.288;2023-02-28T13:36:07;103667.31;;;19.66
74750;BMP280;63269;53.330;-6.288;2023-02-28T13:38:44;103672.63;;;19.66
74750;BMP280;63269;53.330;-6.288;2023-02-28T14:03:01;103649.66;;;19.58
74750;BMP280;63269;53.330;-6.288;2023-02-28T14:05:22;103646.59;;;19.56
74750;BMP280;63269;53.330;-6.288;2023-02-28T14:07:57;103650.38;;;19.55
74750;BMP280;63269;53.330;-6.288;2023-02-28T14:10:30;103650.38;;;19.55
74750;BMP280;63269;53.330;-6.288;2023-02-28T14:15:47;103647.69;;;19.55
74750;BMP280;63269;53.330;-6.288;2023-02-28T14:18:22;103643.47;;;19.54
74750;BMP280;63269;53.330;-6.288;2023-02-28T14:20:49;103643.47;;;19.54
74750;BMP280;63269;53.330;-6.288;2023-02-28T14:31:38;103640.41;;;19.52
74750;BMP280;63269;53.330;-6.288;2023-02-28T14:36:43;103630.47;;;19.49
74750;BMP280;63269;53.330;-6.288;2023-02-28T14:39:20;103638.47;;;19.49
74750;BMP280;63269;53.330;-6.288;2023-02-28T14:41:47;103635.00;;;19.48
74750;BMP280;63269;53.330;-6.288;2023-02-28T14:44:23;103631.56;;;19.48
74750;BMP280;63269;53.330;-6.288;2023-02-28T14:46:52;103637.66;;;19.48
74750;BMP280;63269;53.330;-6.288;2023-02-28T14:49:37;103639.94;;;19.46
74750;BMP280;63269;53.330;-6.288;2023-02-28T14:52:20;103633.84;;;19.46
74750;BMP280;63269;53.330;-6.288;2023-02-28T14:54:46;103634.63;;;19.46
74750;BMP280;63269;53.330;-6.288;2023-02-28T14:59:58;103628.06;;;19.44
74750;BMP280;63269;53.330;-6.288;2023-02-28T15:02:25;103628.06;;;19.44
74750;BMP280;63269;53.330;-6.288;2023-02-28T15:04:56;103626.53;;;19.43
74750;BMP280;63269;53.330;-6.288;2023-02-28T15:07:21;103615.88;;;19.43
74750;BMP280;63269;53.330;-6.288;2023-02-28T15:12:40;103621.56;;;19.41
74750;BMP280;63269;53.330;-6.288;2023-02-28T15:15:15;103629.56;;;19.41
74750;BMP280;63269;53.330;-6.288;2023-02-28T15:17:46;103620.03;;;19.40
74750;BMP280;63269;53.330;-6.288;2023-02-28T15:20:15;103620.03;;;19.40
74750;BMP280;63269;53.330;-6.288;2023-02-28T15:22:41;103626.47;;;19.39
74750;BMP280;63269;53.330;-6.288;2023-02-28T15:25:10;103626.47;;;19.39
74750;BMP280;63269;53.330;-6.288;2023-02-28T15:27:45;103615.03;;;19.38
74750;BMP280;63269;53.330;-6.288;2023-02-28T15:30:17;103615.03;;;19.38
74750;BMP280;63269;53.330;-6.288;2023-02-28T15:32:43;103621.53;;;19.38
74750;BMP280;63269;53.330;-6.288;2023-02-28T15:38:00;103613.88;;;19.36
74750;BMP280;63269;53.330;-6.288;2023-02-28T15:45:32;103614.22;;;19.34
74750;BMP280;63269;53.330;-6.288;2023-02-28T15:48:00;103623.34;;;19.33
74750;BMP280;63269;53.330;-6.288;2023-02-28T15:50:27;103614.56;;;19.33
74750;BMP280;63269;53.330;-6.288;2023-02-28T15:52:53;103614.56;;;19.33
74750;BMP280;63269;53.330;-6.288;2023-02-28T15:55:21;103610.38;;;19.32
74750;BMP280;63269;53.330;-6.288;2023-02-28T15:57:50;103614.16;;;19.31
74750;BMP280;63269;53.330;-6.288;2023-02-28T16:00:20;103614.56;;;19.33
74750;BMP280;63269;53.330;-6.288;2023-02-28T16:02:46;103612.59;;;19.30
74750;BMP280;63269;53.330;-6.288;2023-02-28T16:07:41;103612.59;;;19.30
74750;BMP280;63269;53.330;-6.288;2023-02-28T16:10:11;103620.56;;;19.30